createdAt,value
2018-10-18T07:22:20.814Z,61.20
2018-10-18T07:24:49.542Z,62.40
2018-10-18T07:27:18.540Z,64.03
2018-10-18T07:29:47.218Z,82.67
2018-10-18T07:32:15.867Z,69.33
2018-10-18T07:34:44.745Z,69.07
2018-10-18T07:37:13.422Z,72.73
2018-10-18T07:39:42.042Z,70.27
2018-10-18T07:42:10.725Z,65.03
2018-10-18T07:44:39.551Z,65.30
2018-10-18T07:47:08.257Z,64.77
2018-10-18T07:49:36.902Z,67.77
2018-10-18T07:52:06.364Z,66.20
2018-10-18T07:54:35.018Z,66.30
2018-10-18T07:57:03.866Z,66.80
2018-10-18T07:59:32.649Z,69.37
2018-10-18T08:02:01.329Z,67.13
2018-10-18T08:04:29.955Z,64.50
2018-10-18T08:06:58.647Z,60.87
2018-10-18T08:09:27.326Z,60.03
2018-10-18T08:11:56.104Z,59.47
2018-10-18T08:14:24.768Z,58.93
2018-10-18T08:16:53.558Z,58.47
2018-10-18T08:19:22.372Z,58.23
2018-10-18T08:21:51.018Z,56.30
2018-10-18T08:24:19.823Z,59.30
2018-10-18T08:26:48.471Z,60.10
2018-10-18T08:29:17.227Z,64.90
2018-10-18T08:31:46.041Z,61.93
2018-10-18T08:34:14.948Z,57.97
2018-10-18T08:36:43.712Z,54.83
2018-10-18T08:39:12.805Z,57.00
2018-10-18T08:41:41.533Z,58.00
2018-10-18T08:44:10.196Z,56.77
2018-10-18T08:46:38.853Z,59.00
2018-10-18T08:49:07.685Z,50.27
2018-10-18T08:51:36.948Z,48.87
2018-10-18T08:54:06.020Z,44.80
2018-10-18T08:56:35.304Z,40.53
2018-10-18T08:59:04.231Z,43.37
2018-10-18T09:01:33.330Z,42.83
2018-10-18T09:04:02.510Z,44.07
2018-10-18T09:06:31.374Z,50.43
2018-10-18T09:09:00.365Z,48.70
2018-10-18T09:11:29.472Z,46.67
2018-10-18T09:13:58.474Z,49.67
2018-10-18T09:16:27.456Z,47.10
2018-10-18T09:18:56.583Z,43.00
2018-10-18T09:21:25.756Z,40.80
2018-10-18T09:23:54.665Z,37.40
2018-10-18T09:26:23.666Z,38.03
2018-10-18T09:28:52.525Z,36.07
2018-10-18T09:31:21.378Z,37.87
2018-10-18T09:33:50.308Z,36.30
2018-10-18T09:36:19.197Z,38.10
2018-10-18T09:38:48.357Z,34.23
2018-10-18T09:41:18.078Z,33.10
2018-10-18T09:43:47.629Z,31.73
2018-10-18T09:46:16.455Z,32.47
2018-10-18T09:48:45.146Z,31.07
2018-10-18T09:51:13.777Z,31.63
2018-10-18T09:53:42.410Z,32.70
2018-10-18T09:56:11.138Z,32.90
2018-10-18T09:58:40.190Z,30.33
2018-10-18T10:01:14.099Z,31.53
2018-10-18T10:03:42.920Z,32.60
2018-10-18T10:06:11.589Z,31.87
2018-10-18T10:08:40.326Z,32.83
2018-10-18T10:11:09.114Z,33.17
2018-10-18T10:13:37.902Z,30.83
2018-10-18T10:16:06.724Z,31.90
2018-10-18T10:18:35.363Z,31.97
2018-10-18T10:21:04.093Z,31.30
2018-10-18T10:23:33.029Z,32.33
2018-10-18T10:26:01.834Z,30.17
2018-10-18T10:28:30.627Z,30.80
2018-10-18T10:30:59.343Z,30.97
2018-10-18T10:33:28.365Z,31.50
2018-10-18T10:35:57.200Z,32.00
2018-10-18T10:38:25.833Z,31.60
2018-10-18T10:40:54.597Z,35.00
2018-10-18T10:43:23.389Z,36.50
2018-10-18T10:45:52.093Z,35.57
2018-10-18T10:48:21.166Z,35.57
2018-10-18T10:50:50.030Z,35.53
2018-10-18T10:53:19.321Z,36.07
2018-10-18T10:55:47.958Z,37.23
2018-10-18T10:58:16.688Z,38.00
2018-10-18T11:01:20.040Z,36.47
2018-10-18T11:03:49.668Z,37.40
2018-10-18T11:06:18.730Z,37.77
2018-10-18T11:08:47.857Z,36.60
2018-10-18T11:11:17.215Z,35.57
2018-10-18T11:13:46.388Z,35.25
2018-10-18T11:16:15.625Z,37.95
2018-10-18T11:18:44.318Z,36.28
2018-10-18T11:21:17.186Z,36.67
2018-10-18T11:23:46.042Z,35.70
2018-10-18T11:26:14.774Z,34.27
2018-10-18T11:28:44.325Z,31.95
2018-10-18T11:31:13.080Z,34.73
2018-10-18T11:33:41.858Z,35.15
2018-10-18T11:36:10.823Z,33.97
2018-10-18T11:38:39.647Z,34.07
2018-10-18T11:41:08.728Z,35.27
2018-10-18T11:43:37.413Z,34.37
2018-10-18T11:46:06.330Z,35.80
2018-10-18T11:48:35.134Z,34.80
2018-10-18T11:51:04.186Z,35.23
2018-10-18T11:53:33.081Z,34.93
2018-10-18T11:56:01.845Z,34.53
2018-10-18T11:58:30.703Z,36.53
2018-10-18T12:00:59.417Z,36.60
2018-10-18T12:03:28.120Z,34.93
2018-10-18T12:05:56.782Z,35.43
2018-10-18T12:08:25.437Z,36.97
2018-10-18T12:10:54.220Z,36.17
2018-10-18T12:13:23.169Z,37.87
2018-10-18T12:15:52.056Z,36.03
2018-10-18T12:18:20.696Z,37.40
2018-10-18T12:20:49.365Z,36.53
2018-10-18T12:23:18.084Z,37.10
2018-10-18T12:25:46.920Z,36.23
2018-10-18T12:28:15.566Z,35.20
2018-10-18T12:30:44.358Z,35.30
2018-10-18T12:33:13.057Z,32.93
2018-10-18T12:35:41.798Z,35.57
2018-10-18T12:38:10.601Z,36.03
2018-10-18T12:40:39.358Z,34.40
2018-10-18T12:43:08.203Z,31.53
2018-10-18T12:45:37.022Z,31.67
2018-10-18T12:48:06.170Z,31.27
2018-10-18T12:50:35.102Z,27.30
2018-10-18T12:53:03.803Z,23.80
2018-10-18T12:55:32.583Z,22.40
2018-10-18T12:58:01.235Z,19.67
2018-10-18T13:00:29.901Z,21.53
2018-10-18T13:02:58.624Z,20.47
2018-10-18T13:05:27.290Z,19.33
2018-10-18T13:07:55.942Z,19.30
2018-10-18T13:10:24.742Z,20.07
2018-10-18T13:12:53.509Z,20.20
2018-10-18T13:15:22.240Z,20.67
2018-10-18T13:17:50.922Z,22.00
2018-10-18T13:20:19.638Z,22.43
2018-10-18T13:22:48.432Z,21.90
2018-10-18T13:25:17.130Z,22.90
2018-10-18T13:27:46.202Z,21.63
2018-10-18T13:30:15.147Z,22.63
2018-10-18T13:32:44.017Z,22.13
2018-10-18T13:35:13.094Z,22.80
2018-10-18T13:37:41.758Z,21.53
2018-10-18T13:40:10.526Z,21.63
2018-10-18T13:42:39.150Z,21.67
2018-10-18T13:45:08.126Z,22.47
2018-10-18T13:47:37.134Z,22.03
2018-10-18T13:50:06.814Z,22.47
2018-10-18T13:52:35.868Z,23.00
2018-10-18T13:55:04.634Z,21.97
2018-10-18T13:57:33.358Z,23.13
2018-10-18T14:00:24.902Z,23.63
2018-10-18T14:02:54.407Z,24.27
2018-10-18T14:05:23.490Z,24.80
2018-10-18T14:07:53.386Z,24.77
2018-10-18T14:10:22.176Z,23.53
2018-10-18T14:12:51.465Z,23.63
2018-10-18T14:15:20.102Z,23.37
2018-10-18T14:17:48.864Z,23.80
2018-10-18T14:20:17.772Z,25.50
2018-10-18T14:22:46.658Z,25.00
2018-10-18T14:25:15.331Z,24.30
2018-10-18T14:27:44.013Z,25.10
2018-10-18T14:30:13.473Z,24.77
2018-10-18T14:32:42.226Z,24.27
2018-10-18T14:35:12.320Z,24.57
2018-10-18T14:37:41.348Z,23.37
2018-10-18T14:40:11.662Z,24.17
2018-10-18T14:42:40.365Z,24.07
2018-10-18T14:45:09.682Z,24.30
2018-10-18T14:47:38.680Z,24.50
2018-10-18T14:50:09.651Z,24.53
2018-10-18T14:52:39.016Z,24.73
2018-10-18T14:55:07.883Z,25.77
2018-10-18T14:57:36.794Z,25.30
2018-10-18T15:00:06.123Z,24.77
2018-10-18T15:02:34.762Z,25.60
2018-10-18T15:05:03.384Z,25.77
2018-10-18T15:07:32.261Z,25.23
2018-10-18T15:10:00.924Z,26.07
2018-10-18T15:12:29.618Z,25.53
2018-10-18T15:14:58.818Z,25.80
2018-10-18T15:17:27.567Z,26.23
2018-10-18T15:19:56.281Z,25.17
2018-10-18T15:22:25.361Z,29.50
2018-10-18T15:24:54.017Z,30.60
2018-10-18T15:27:22.758Z,31.53
2018-10-18T15:29:51.615Z,43.20
2018-10-18T15:32:20.522Z,50.13
2018-10-18T15:34:49.794Z,74.50
2018-10-18T15:37:19.003Z,91.67
2018-10-18T15:39:47.996Z,161.20
2018-10-18T15:42:16.682Z,158.07
2018-10-18T15:44:47.628Z,147.27
2018-10-18T15:47:16.497Z,75.97
2018-10-18T15:49:45.304Z,44.73
2018-10-18T15:52:14.047Z,54.03
2018-10-18T15:54:42.759Z,46.77
2018-10-18T15:57:11.774Z,47.17
2018-10-18T15:59:40.903Z,42.20
2018-10-18T16:02:09.774Z,43.60
2018-10-18T16:04:38.512Z,45.37
2018-10-18T16:07:07.209Z,49.87
2018-10-18T16:09:35.957Z,79.23
2018-10-18T16:12:04.856Z,86.17
2018-10-18T16:14:33.635Z,71.93
2018-10-18T16:17:02.438Z,55.83
2018-10-18T16:19:31.434Z,54.10
2018-10-18T16:22:00.406Z,53.90
2018-10-18T16:24:29.274Z,77.70
2018-10-18T16:26:58.182Z,89.77
2018-10-18T16:29:26.977Z,100.90
2018-10-18T16:31:55.684Z,77.30
2018-10-18T16:34:24.433Z,55.97
2018-10-18T16:36:53.339Z,64.40
2018-10-18T16:39:22.115Z,66.30
2018-10-18T16:41:50.901Z,69.97
2018-10-18T16:44:19.718Z,54.27
2018-10-18T16:46:48.379Z,52.50
2018-10-18T16:49:17.101Z,48.37
2018-10-18T16:51:45.789Z,50.53
2018-10-18T16:54:14.608Z,52.50
2018-10-18T16:56:43.367Z,52.37
2018-10-18T16:59:12.214Z,52.67
2018-10-18T17:01:41.078Z,54.77
2018-10-18T17:04:09.875Z,52.83
2018-10-18T17:06:38.763Z,51.77
2018-10-18T17:09:09.314Z,53.60
2018-10-18T17:11:38.211Z,53.73
2018-10-18T17:14:07.144Z,54.47
2018-10-18T17:16:36.022Z,63.17
2018-10-18T17:19:04.764Z,64.23
2018-10-18T17:21:33.570Z,62.13
2018-10-18T17:24:02.368Z,64.03
2018-10-18T17:26:31.368Z,67.13
2018-10-18T17:29:00.332Z,62.80
2018-10-18T17:31:29.154Z,70.47
2018-10-18T17:33:57.918Z,73.20
2018-10-18T17:36:27.030Z,73.60
2018-10-18T17:38:55.888Z,70.00
2018-10-18T17:41:24.652Z,65.70
2018-10-18T17:43:53.706Z,70.37
2018-10-18T17:46:23.067Z,112.93
2018-10-18T17:48:52.033Z,101.80
2018-10-18T17:51:20.862Z,79.63
2018-10-18T17:53:49.535Z,74.57
2018-10-18T17:56:18.319Z,80.70
2018-10-18T17:58:47.130Z,94.20
2018-10-18T18:01:15.809Z,106.50
2018-10-18T18:03:44.542Z,97.37
2018-10-18T18:06:13.378Z,94.00
2018-10-18T18:08:42.306Z,88.40
2018-10-18T18:11:11.175Z,93.07
2018-10-18T18:13:39.939Z,90.17
2018-10-18T18:16:08.792Z,89.83
2018-10-18T18:18:37.677Z,88.27
2018-10-18T18:21:06.453Z,91.77
2018-10-18T18:23:35.296Z,87.90
2018-10-18T18:26:04.092Z,110.67
2018-10-18T18:28:32.822Z,193.23
2018-10-18T18:31:01.845Z,124.23
2018-10-18T18:33:30.606Z,122.33
2018-10-18T18:35:59.392Z,107.30
2018-10-18T18:38:28.128Z,116.17
2018-10-18T18:40:56.782Z,118.90
2018-10-18T18:43:25.492Z,105.33
2018-10-18T18:45:54.313Z,140.57
2018-10-18T18:48:23.014Z,124.53
2018-10-18T18:50:51.961Z,120.27
2018-10-18T18:53:20.826Z,103.10
2018-10-18T18:55:49.674Z,97.03
2018-10-18T18:58:18.350Z,100.73
2018-10-18T19:00:47.074Z,103.03
2018-10-18T19:03:16.030Z,121.53
2018-10-18T19:05:44.817Z,118.70
2018-10-18T19:08:13.947Z,118.83
2018-10-18T19:10:42.614Z,119.37
2018-10-18T19:13:12.051Z,116.17
2018-10-18T19:15:40.943Z,112.80
2018-10-18T19:18:09.723Z,114.63
2018-10-18T19:20:38.642Z,114.63
2018-10-18T19:23:08.459Z,116.10
2018-10-18T19:25:37.762Z,126.63
2018-10-18T19:28:07.590Z,122.13
2018-10-18T19:30:38.070Z,113.63
2018-10-18T19:33:06.876Z,112.53
2018-10-18T19:35:35.694Z,119.93
2018-10-18T19:38:04.847Z,125.87
2018-10-18T19:40:33.556Z,119.27
2018-10-18T19:43:02.468Z,117.23
2018-10-18T19:45:31.196Z,116.70
2018-10-18T19:48:00.073Z,117.07
2018-10-18T19:50:28.730Z,118.13
2018-10-18T19:52:57.613Z,120.77
2018-10-18T19:55:27.572Z,125.83
2018-10-18T19:57:56.810Z,129.37
2018-10-18T20:00:26.276Z,129.97
2018-10-18T20:02:54.972Z,124.93
2018-10-18T20:05:23.803Z,119.60
2018-10-18T20:07:52.597Z,117.50
2018-10-18T20:10:21.354Z,115.60
2018-10-18T20:12:50.112Z,127.57
2018-10-18T20:15:19.114Z,124.73
2018-10-18T20:17:48.165Z,119.10
2018-10-18T20:20:17.205Z,120.97
2018-10-18T20:22:46.136Z,118.73
2018-10-18T20:25:14.915Z,123.10
2018-10-18T20:27:43.779Z,124.07
2018-10-18T20:30:14.717Z,116.90
2018-10-18T20:32:43.706Z,118.53
2018-10-18T20:35:13.316Z,114.50
2018-10-18T20:37:42.340Z,118.97
2018-10-18T20:40:13.338Z,117.77
2018-10-18T20:42:42.222Z,121.20
2018-10-18T20:45:16.344Z,120.63
2018-10-18T20:47:45.659Z,120.33
2018-10-18T20:50:14.746Z,122.73
2018-10-18T20:52:43.716Z,120.77
2018-10-18T20:55:12.411Z,116.27
2018-10-18T20:57:41.094Z,115.23
2018-10-18T21:00:10.362Z,113.47
2018-10-18T21:02:39.212Z,112.93
2018-10-18T21:05:08.054Z,115.47
2018-10-18T21:07:36.752Z,113.83
2018-10-18T21:10:05.831Z,116.17
2018-10-18T21:12:34.563Z,118.97
2018-10-18T21:15:03.416Z,117.53
2018-10-18T21:17:32.214Z,117.73
2018-10-18T21:20:01.020Z,120.77
2018-10-18T21:22:29.828Z,118.30
2018-10-18T21:24:58.504Z,128.87
2018-10-18T21:27:27.716Z,121.37
2018-10-18T21:29:56.355Z,118.77
2018-10-18T21:32:25.163Z,122.13
2018-10-18T21:34:53.879Z,114.17
2018-10-18T21:37:22.630Z,111.03
2018-10-18T21:39:51.814Z,113.90
2018-10-18T21:42:21.302Z,125.30
2018-10-18T21:44:50.707Z,123.97
2018-10-18T21:47:19.507Z,125.47
2018-10-18T21:49:48.285Z,122.80
2018-10-18T21:52:16.925Z,118.80
2018-10-18T21:54:45.611Z,124.40
2018-10-18T21:57:14.395Z,126.53
2018-10-18T21:59:43.442Z,120.80
2018-10-18T22:02:12.160Z,119.53
2018-10-18T22:04:40.853Z,116.77
2018-10-18T22:07:09.538Z,116.07
2018-10-18T22:09:38.205Z,113.90
2018-10-18T22:12:06.986Z,108.27
2018-10-18T22:14:35.653Z,102.70
2018-10-18T22:17:04.349Z,99.90
2018-10-18T22:19:33.298Z,95.50
2018-10-18T22:22:01.960Z,108.73
2018-10-18T22:24:30.757Z,100.00
2018-10-18T22:26:59.506Z,99.03
2018-10-18T22:29:28.473Z,102.73
2018-10-18T22:31:57.162Z,105.60
2018-10-18T22:34:25.876Z,102.73
2018-10-18T22:36:54.729Z,94.93
2018-10-18T22:39:23.507Z,94.33
2018-10-18T22:41:52.329Z,95.30
2018-10-18T22:44:21.010Z,87.97
2018-10-18T22:46:49.663Z,92.30
2018-10-18T22:49:18.314Z,94.37
2018-10-18T22:51:46.966Z,92.60
2018-10-18T22:54:15.700Z,92.03
2018-10-18T22:56:44.484Z,92.43
2018-10-18T22:59:13.789Z,90.80
2018-10-18T23:01:42.671Z,91.17
2018-10-18T23:04:11.342Z,91.07
2018-10-18T23:06:40.463Z,105.73
2018-10-18T23:09:11.524Z,101.73
2018-10-18T23:11:40.318Z,100.20
2018-10-18T23:14:09.905Z,103.63
2018-10-18T23:16:39.985Z,96.87
2018-10-18T23:19:10.472Z,100.63
2018-10-18T23:21:39.172Z,104.27
2018-10-18T23:24:07.966Z,100.33
2018-10-18T23:26:37.163Z,105.00
2018-10-18T23:29:06.181Z,109.63
2018-10-18T23:31:35.038Z,107.90
2018-10-18T23:34:03.704Z,101.47
2018-10-18T23:36:32.350Z,100.00
2018-10-18T23:39:01.015Z,97.03
2018-10-18T23:41:29.680Z,94.33
2018-10-18T23:43:58.434Z,90.07
2018-10-18T23:46:27.292Z,94.00
2018-10-18T23:48:56.034Z,94.03
2018-10-18T23:51:24.674Z,96.07
2018-10-18T23:53:53.713Z,96.43
2018-10-18T23:56:22.417Z,93.70
2018-10-18T23:58:51.064Z,94.67
